메인 페이지
METAR-TAF:

METAR-TAF

공항 :

군산공항

군산, 대한민국

위도: 35-55N, 경도: 126-37E, 고도: 10m

현재 날씨관측

예보는 55분 전, 07:56시(UTC)에 발표되었습니다.
북북서12kt
온도 20°C
습도 56%
기압 1016 hPa
시정: 16.1km
맑음

METAR: RKJK 210756Z AUTO 34012KT 10SM CLR 20/11 A3000 RMK AO2 SLP163 T02010108 $

시각: 17:51 (08:51 UTC)

예보

예보는 1 시간 51분 전, 07:00시(UTC)에 발표되었습니다.
예보 대상 시간: 21일 07시부터 22일 13시까지 (UTC)
북북서12kt
시정 10km 이상
고도 21000ft 상공 구름 많음
전환 중
21일 10시부터 21일 11시까지 (UTC)
여러 방향의 바람 6kt
시정 10km 이상
고도 3500ft 상공 구름 보통
고도 20000ft 상공 구름 많음
전환 중
22일 01시부터 22일 02시까지 (UTC)
남동9kt
시정 10km 이상
고도 2500ft 상공 구름 보통
고도 15000ft 상공 구름 많음
전환 중
22일 10시부터 22일 11시까지 (UTC)
남남동9kt
시정: 6000m
고도 2000ft 상공 구름 많음
고도 3500ft 상공 흐림
약한소나기

TAF: RKJK 210700Z 2107/2213 33012KT 9999 BKN210 QNH2997INS BECMG 2110/2111 VRB06KT 9999 SCT035 BKN200 QNH2998INS BECMG 2201/2202 14009KT 9999 SCT025 BKN150 QNH2990INS BECMG 2210/2211 15009KT 6000 -SHRA BKN020 OVC035 QNH2985INS TX23/2206Z TN14/2121Z

4,000개 이상의 공항 관측 자료 및 예보 (METAR 및 TAF 보고).

지도상에서 검색 가능한 기상관측소가 노란 점과 빨간 점으로 표시되어 있습니다.

기상관측소 명을 보려면 표시 위로 마우스를 이동하세요.

날씨 관측과 예보를 보려면 클릭하세요.

지도 변경 : 확대하려면 엑스 표시가 있는 녹색 버튼, 축소하려면 빼기 표시가 있는 녹색 버튼, 다음 페이지의 지도를 보려면 녹색 화살표를 클릭하세요.


METAR-TAF: